sensor_id;sensor_type;location;lat;lon;timestamp;P1;durP1;ratioP1;P2;durP2;ratioP2
34836;SDS011;21053;50.848;4.652;2022-09-24T00:01:51;26.98;;;11.15;;
34836;SDS011;21053;50.848;4.652;2022-09-24T00:04:23;27.92;;;11.57;;
34836;SDS011;21053;50.848;4.652;2022-09-24T00:16:47;18.55;;;11.88;;
34836;SDS011;21053;50.848;4.652;2022-09-24T00:19:15;28.38;;;13.30;;
34836;SDS011;21053;50.848;4.652;2022-09-24T00:21:50;22.50;;;12.05;;
34836;SDS011;21053;50.848;4.652;2022-09-24T00:27:06;21.17;;;12.32;;
34836;SDS011;21053;50.848;4.652;2022-09-24T00:29:35;19.55;;;12.27;;
34836;SDS011;21053;50.848;4.652;2022-09-24T00:32:08;20.25;;;11.30;;
34836;SDS011;21053;50.848;4.652;2022-09-24T00:37:04;20.60;;;12.07;;
34836;SDS011;21053;50.848;4.652;2022-09-24T00:39:32;20.52;;;11.52;;
34836;SDS011;21053;50.848;4.652;2022-09-24T00:41:59;27.23;;;12.00;;
34836;SDS011;21053;50.848;4.652;2022-09-24T00:52:54;28.15;;;12.13;;
34836;SDS011;21053;50.848;4.652;2022-09-24T00:55:23;20.80;;;12.43;;
34836;SDS011;21053;50.848;4.652;2022-09-24T01:00:23;19.80;;;12.00;;
34836;SDS011;21053;50.848;4.652;2022-09-24T01:02:52;22.20;;;12.10;;
34836;SDS011;21053;50.848;4.652;2022-09-24T01:05:22;22.80;;;12.95;;
34836;SDS011;21053;50.848;4.652;2022-09-24T01:07:56;23.42;;;11.32;;
34836;SDS011;21053;50.848;4.652;2022-09-24T01:10:28;19.80;;;11.65;;
34836;SDS011;21053;50.848;4.652;2022-09-24T01:13:20;20.88;;;11.75;;
34836;SDS011;21053;50.848;4.652;2022-09-24T01:21:53;19.15;;;11.75;;
34836;SDS011;21053;50.848;4.652;2022-09-24T01:24:53;17.05;;;11.63;;
34836;SDS011;21053;50.848;4.652;2022-09-24T01:30:11;22.33;;;11.70;;
34836;SDS011;21053;50.848;4.652;2022-09-24T01:35:16;21.27;;;12.23;;
34836;SDS011;21053;50.848;4.652;2022-09-24T01:38:03;19.92;;;11.93;;
34836;SDS011;21053;50.848;4.652;2022-09-24T01:40:36;21.58;;;11.10;;
34836;SDS011;21053;50.848;4.652;2022-09-24T01:43:07;19.92;;;12.70;;
34836;SDS011;21053;50.848;4.652;2022-09-24T01:45:36;29.35;;;14.15;;
34836;SDS011;21053;50.848;4.652;2022-09-24T01:48:06;23.70;;;13.25;;
34836;SDS011;21053;50.848;4.652;2022-09-24T01:50:40;19.27;;;12.57;;
34836;SDS011;21053;50.848;4.652;2022-09-24T01:55:57;23.98;;;13.60;;
34836;SDS011;21053;50.848;4.652;2022-09-24T02:01:30;26.80;;;14.02;;
34836;SDS011;21053;50.848;4.652;2022-09-24T02:04:04;24.05;;;14.43;;
34836;SDS011;21053;50.848;4.652;2022-09-24T02:09:31;24.40;;;14.40;;
34836;SDS011;21053;50.848;4.652;2022-09-24T02:12:11;24.58;;;13.30;;
34836;SDS011;21053;50.848;4.652;2022-09-24T02:15:07;24.95;;;13.40;;
34836;SDS011;21053;50.848;4.652;2022-09-24T02:17:43;23.60;;;13.98;;
34836;SDS011;21053;50.848;4.652;2022-09-24T02:20:15;31.55;;;14.15;;
34836;SDS011;21053;50.848;4.652;2022-09-24T02:25:16;26.40;;;14.55;;
34836;SDS011;21053;50.848;4.652;2022-09-24T02:27:46;20.88;;;12.98;;
34836;SDS011;21053;50.848;4.652;2022-09-24T02:30:15;20.75;;;12.45;;
34836;SDS011;21053;50.848;4.652;2022-09-24T02:32:41;23.58;;;14.10;;
34836;SDS011;21053;50.848;4.652;2022-09-24T02:35:11;23.38;;;12.80;;
34836;SDS011;21053;50.848;4.652;2022-09-24T02:40:12;30.33;;;14.85;;
34836;SDS011;21053;50.848;4.652;2022-09-24T02:42:39;24.40;;;14.15;;
34836;SDS011;21053;50.848;4.652;2022-09-24T02:45:12;29.73;;;14.15;;
34836;SDS011;21053;50.848;4.652;2022-09-24T02:47:41;28.15;;;13.60;;
34836;SDS011;21053;50.848;4.652;2022-09-24T02:50:13;22.17;;;13.73;;
34836;SDS011;21053;50.848;4.652;2022-09-24T02:52:39;24.92;;;14.75;;
34836;SDS011;21053;50.848;4.652;2022-09-24T02:55:10;24.42;;;13.75;;
34836;SDS011;21053;50.848;4.652;2022-09-24T02:57:42;22.42;;;13.55;;
34836;SDS011;21053;50.848;4.652;2022-09-24T03:05:07;24.45;;;14.48;;
34836;SDS011;21053;50.848;4.652;2022-09-24T03:12:40;31.77;;;13.88;;
34836;SDS011;21053;50.848;4.652;2022-09-24T03:15:13;23.38;;;13.23;;
34836;SDS011;21053;50.848;4.652;2022-09-24T03:17:42;29.95;;;14.65;;
34836;SDS011;21053;50.848;4.652;2022-09-24T03:20:11;28.38;;;14.93;;
34836;SDS011;21053;50.848;4.652;2022-09-24T03:22:40;25.52;;;14.32;;
34836;SDS011;21053;50.848;4.652;2022-09-24T03:25:09;24.15;;;15.43;;
34836;SDS011;21053;50.848;4.652;2022-09-24T03:27:36;26.15;;;13.77;;
34836;SDS011;21053;50.848;4.652;2022-09-24T03:30:05;25.13;;;15.57;;
34836;SDS011;21053;50.848;4.652;2022-09-24T03:32:51;26.50;;;15.38;;
34836;SDS011;21053;50.848;4.652;2022-09-24T03:35:20;27.73;;;15.50;;
34836;SDS011;21053;50.848;4.652;2022-09-24T03:37:46;24.35;;;14.15;;
34836;SDS011;21053;50.848;4.652;2022-09-24T03:40:15;32.75;;;15.45;;
34836;SDS011;21053;50.848;4.652;2022-09-24T03:42:47;27.90;;;15.10;;
34836;SDS011;21053;50.848;4.652;2022-09-24T03:45:15;23.50;;;13.25;;
34836;SDS011;21053;50.848;4.652;2022-09-24T03:50:13;22.58;;;14.00;;
34836;SDS011;21053;50.848;4.652;2022-09-24T03:52:40;24.80;;;14.30;;
34836;SDS011;21053;50.848;4.652;2022-09-24T03:55:09;20.73;;;13.20;;
34836;SDS011;21053;50.848;4.652;2022-09-24T03:57:35;26.30;;;14.27;;
34836;SDS011;21053;50.848;4.652;2022-09-24T04:00:02;32.40;;;14.80;;
34836;SDS011;21053;50.848;4.652;2022-09-24T04:04:59;26.98;;;14.85;;
34836;SDS011;21053;50.848;4.652;2022-09-24T04:09:56;25.17;;;14.32;;
34836;SDS011;21053;50.848;4.652;2022-09-24T04:12:23;25.63;;;14.60;;
34836;SDS011;21053;50.848;4.652;2022-09-24T04:14:52;25.63;;;15.00;;
34836;SDS011;21053;50.848;4.652;2022-09-24T04:17:23;31.65;;;16.17;;
34836;SDS011;21053;50.848;4.652;2022-09-24T04:19:55;29.00;;;13.88;;
34836;SDS011;21053;50.848;4.652;2022-09-24T04:22:28;26.92;;;15.55;;
34836;SDS011;21053;50.848;4.652;2022-09-24T04:24:55;26.08;;;15.30;;
34836;SDS011;21053;50.848;4.652;2022-09-24T04:27:24;24.70;;;15.15;;
34836;SDS011;21053;50.848;4.652;2022-09-24T04:29:52;26.50;;;14.95;;
34836;SDS011;21053;50.848;4.652;2022-09-24T04:32:21;29.92;;;15.90;;
34836;SDS011;21053;50.848;4.652;2022-09-24T04:34:48;26.13;;;14.93;;
34836;SDS011;21053;50.848;4.652;2022-09-24T04:37:13;26.90;;;14.50;;
34836;SDS011;21053;50.848;4.652;2022-09-24T04:39:42;24.50;;;14.25;;
34836;SDS011;21053;50.848;4.652;2022-09-24T04:42:14;23.50;;;14.20;;
34836;SDS011;21053;50.848;4.652;2022-09-24T04:47:13;30.20;;;15.00;;
34836;SDS011;21053;50.848;4.652;2022-09-24T04:52:30;22.50;;;14.32;;
34836;SDS011;21053;50.848;4.652;2022-09-24T04:55:00;26.00;;;15.18;;
34836;SDS011;21053;50.848;4.652;2022-09-24T05:02:33;28.58;;;15.40;;
34836;SDS011;21053;50.848;4.652;2022-09-24T05:04:59;31.25;;;16.67;;
34836;SDS011;21053;50.848;4.652;2022-09-24T05:07:28;27.40;;;15.30;;
34836;SDS011;21053;50.848;4.652;2022-09-24T05:09:55;33.58;;;16.67;;
34836;SDS011;21053;50.848;4.652;2022-09-24T05:12:24;26.55;;;15.32;;
34836;SDS011;21053;50.848;4.652;2022-09-24T05:14:52;25.45;;;15.18;;
34836;SDS011;21053;50.848;4.652;2022-09-24T05:17:20;31.02;;;17.23;;
34836;SDS011;21053;50.848;4.652;2022-09-24T05:19:49;32.42;;;16.52;;
34836;SDS011;21053;50.848;4.652;2022-09-24T05:22:16;30.90;;;16.27;;
34836;SDS011;21053;50.848;4.652;2022-09-24T05:24:45;28.38;;;16.10;;
34836;SDS011;21053;50.848;4.652;2022-09-24T05:27:10;30.55;;;17.27;;
34836;SDS011;21053;50.848;4.652;2022-09-24T05:29:40;26.95;;;14.80;;
34836;SDS011;21053;50.848;4.652;2022-09-24T05:32:14;28.50;;;14.90;;
34836;SDS011;21053;50.848;4.652;2022-09-24T05:34:41;30.40;;;15.50;;
34836;SDS011;21053;50.848;4.652;2022-09-24T05:37:09;31.65;;;16.25;;
34836;SDS011;21053;50.848;4.652;2022-09-24T05:42:05;27.90;;;15.52;;
34836;SDS011;21053;50.848;4.652;2022-09-24T05:47:03;25.25;;;15.85;;
34836;SDS011;21053;50.848;4.652;2022-09-24T05:49:28;30.85;;;15.98;;
34836;SDS011;21053;50.848;4.652;2022-09-24T05:54:23;27.55;;;14.98;;
34836;SDS011;21053;50.848;4.652;2022-09-24T05:56:51;28.42;;;15.93;;
34836;SDS011;21053;50.848;4.652;2022-09-24T05:59:20;30.05;;;16.35;;
34836;SDS011;21053;50.848;4.652;2022-09-24T06:04:16;34.30;;;17.02;;
34836;SDS011;21053;50.848;4.652;2022-09-24T06:06:42;31.98;;;16.35;;
34836;SDS011;21053;50.848;4.652;2022-09-24T06:09:07;27.63;;;15.80;;
34836;SDS011;21053;50.848;4.652;2022-09-24T06:11:36;32.25;;;17.50;;
34836;SDS011;21053;50.848;4.652;2022-09-24T06:14:08;36.15;;;16.92;;
34836;SDS011;21053;50.848;4.652;2022-09-24T06:16:37;34.45;;;17.67;;
34836;SDS011;21053;50.848;4.652;2022-09-24T06:19:06;34.03;;;17.00;;
34836;SDS011;21053;50.848;4.652;2022-09-24T06:24:00;34.38;;;17.13;;
34836;SDS011;21053;50.848;4.652;2022-09-24T06:26:28;34.40;;;16.23;;
34836;SDS011;21053;50.848;4.652;2022-09-24T06:28:56;33.70;;;17.10;;
34836;SDS011;21053;50.848;4.652;2022-09-24T06:33:51;35.90;;;16.35;;
34836;SDS011;21053;50.848;4.652;2022-09-24T06:36:17;36.17;;;16.77;;
34836;SDS011;21053;50.848;4.652;2022-09-24T06:38:49;30.13;;;16.25;;
34836;SDS011;21053;50.848;4.652;2022-09-24T06:41:18;30.95;;;15.82;;
34836;SDS011;21053;50.848;4.652;2022-09-24T06:43:45;35.55;;;16.60;;
34836;SDS011;21053;50.848;4.652;2022-09-24T06:46:14;33.38;;;17.20;;
34836;SDS011;21053;50.848;4.652;2022-09-24T06:48:42;28.73;;;15.52;;
34836;SDS011;21053;50.848;4.652;2022-09-24T06:51:08;35.03;;;17.02;;
34836;SDS011;21053;50.848;4.652;2022-09-24T07:01:03;36.55;;;16.35;;
34836;SDS011;21053;50.848;4.652;2022-09-24T07:06:03;32.35;;;15.35;;
34836;SDS011;21053;50.848;4.652;2022-09-24T07:08:33;32.28;;;15.02;;
34836;SDS011;21053;50.848;4.652;2022-09-24T07:13:29;34.17;;;16.15;;
34836;SDS011;21053;50.848;4.652;2022-09-24T07:18:27;32.58;;;14.68;;
34836;SDS011;21053;50.848;4.652;2022-09-24T07:25:54;36.40;;;16.58;;
34836;SDS011;21053;50.848;4.652;2022-09-24T07:28:24;34.42;;;16.63;;
34836;SDS011;21053;50.848;4.652;2022-09-24T07:30:56;42.38;;;16.88;;
34836;SDS011;21053;50.848;4.652;2022-09-24T07:33:26;32.13;;;15.68;;
34836;SDS011;21053;50.848;4.652;2022-09-24T07:35:55;31.83;;;16.50;;
34836;SDS011;21053;50.848;4.652;2022-09-24T07:38:21;35.22;;;16.70;;
34836;SDS011;21053;50.848;4.652;2022-09-24T07:40:50;30.92;;;16.02;;
34836;SDS011;21053;50.848;4.652;2022-09-24T07:45:51;39.60;;;17.27;;
34836;SDS011;21053;50.848;4.652;2022-09-24T07:50:48;29.77;;;15.88;;
34836;SDS011;21053;50.848;4.652;2022-09-24T07:53:14;32.55;;;16.30;;
34836;SDS011;21053;50.848;4.652;2022-09-24T07:55:42;32.90;;;16.88;;
34836;SDS011;21053;50.848;4.652;2022-09-24T07:58:12;31.98;;;17.00;;
34836;SDS011;21053;50.848;4.652;2022-09-24T08:03:07;33.17;;;17.08;;
34836;SDS011;21053;50.848;4.652;2022-09-24T08:05:33;32.55;;;16.35;;
34836;SDS011;21053;50.848;4.652;2022-09-24T08:08:01;38.65;;;17.70;;
34836;SDS011;21053;50.848;4.652;2022-09-24T08:12:59;33.67;;;16.88;;
34836;SDS011;21053;50.848;4.652;2022-09-24T08:15:29;39.55;;;16.67;;
34836;SDS011;21053;50.848;4.652;2022-09-24T08:17:59;35.75;;;17.10;;
34836;SDS011;21053;50.848;4.652;2022-09-24T08:20:30;37.10;;;17.30;;
34836;SDS011;21053;50.848;4.652;2022-09-24T08:23:01;32.85;;;16.50;;
34836;SDS011;21053;50.848;4.652;2022-09-24T08:25:34;34.35;;;17.42;;
34836;SDS011;21053;50.848;4.652;2022-09-24T08:30:29;38.97;;;17.45;;
34836;SDS011;21053;50.848;4.652;2022-09-24T08:32:57;35.97;;;17.45;;
34836;SDS011;21053;50.848;4.652;2022-09-24T08:35:23;34.95;;;16.10;;
34836;SDS011;21053;50.848;4.652;2022-09-24T08:37:52;36.53;;;16.02;;
34836;SDS011;21053;50.848;4.652;2022-09-24T08:40:27;36.10;;;18.05;;
34836;SDS011;21053;50.848;4.652;2022-09-24T08:45:54;27.88;;;15.18;;
34836;SDS011;21053;50.848;4.652;2022-09-24T08:51:19;35.33;;;16.50;;
34836;SDS011;21053;50.848;4.652;2022-09-24T08:53:53;36.38;;;15.63;;
34836;SDS011;21053;50.848;4.652;2022-09-24T08:56:29;30.90;;;14.85;;
34836;SDS011;21053;50.848;4.652;2022-09-24T08:58:59;34.95;;;15.77;;
34836;SDS011;21053;50.848;4.652;2022-09-24T09:10:03;33.10;;;15.10;;
34836;SDS011;21053;50.848;4.652;2022-09-24T09:12:44;33.83;;;16.00;;
34836;SDS011;21053;50.848;4.652;2022-09-24T09:15:17;33.70;;;15.15;;
34836;SDS011;21053;50.848;4.652;2022-09-24T09:18:27;35.17;;;15.75;;
34836;SDS011;21053;50.848;4.652;2022-09-24T09:20:53;37.08;;;16.00;;
34836;SDS011;21053;50.848;4.652;2022-09-24T09:23:27;39.92;;;16.73;;
34836;SDS011;21053;50.848;4.652;2022-09-24T09:25:59;32.35;;;15.88;;
34836;SDS011;21053;50.848;4.652;2022-09-24T09:28:28;33.67;;;16.52;;
34836;SDS011;21053;50.848;4.652;2022-09-24T09:39:34;31.63;;;15.15;;
34836;SDS011;21053;50.848;4.652;2022-09-24T09:44:58;37.13;;;15.90;;
34836;SDS011;21053;50.848;4.652;2022-09-24T09:52:53;37.03;;;16.52;;
34836;SDS011;21053;50.848;4.652;2022-09-24T09:55:26;32.05;;;15.05;;
34836;SDS011;21053;50.848;4.652;2022-09-24T10:00:44;33.33;;;14.98;;
34836;SDS011;21053;50.848;4.652;2022-09-24T10:03:30;35.20;;;15.13;;
34836;SDS011;21053;50.848;4.652;2022-09-24T10:08:30;30.20;;;15.25;;
34836;SDS011;21053;50.848;4.652;2022-09-24T10:13:26;30.50;;;14.07;;
34836;SDS011;21053;50.848;4.652;2022-09-24T10:15:59;25.58;;;13.95;;
34836;SDS011;21053;50.848;4.652;2022-09-24T10:18:35;29.63;;;14.75;;
34836;SDS011;21053;50.848;4.652;2022-09-24T10:23:56;30.27;;;13.75;;
34836;SDS011;21053;50.848;4.652;2022-09-24T10:29:10;29.95;;;13.90;;
34836;SDS011;21053;50.848;4.652;2022-09-24T10:34:32;28.70;;;13.98;;
34836;SDS011;21053;50.848;4.652;2022-09-24T10:37:12;29.42;;;12.88;;
34836;SDS011;21053;50.848;4.652;2022-09-24T10:39:42;29.23;;;12.65;;
34836;SDS011;21053;50.848;4.652;2022-09-24T10:42:24;29.55;;;11.68;;
34836;SDS011;21053;50.848;4.652;2022-09-24T10:44:55;22.63;;;11.60;;
34836;SDS011;21053;50.848;4.652;2022-09-24T10:50:31;31.15;;;12.80;;
34836;SDS011;21053;50.848;4.652;2022-09-24T10:53:18;34.03;;;12.57;;
34836;SDS011;21053;50.848;4.652;2022-09-24T10:55:58;27.75;;;11.80;;
34836;SDS011;21053;50.848;4.652;2022-09-24T10:58:48;26.20;;;12.20;;
34836;SDS011;21053;50.848;4.652;2022-09-24T11:01:58;29.35;;;13.45;;
34836;SDS011;21053;50.848;4.652;2022-09-24T11:04:55;30.40;;;13.15;;
34836;SDS011;21053;50.848;4.652;2022-09-24T11:07:43;31.00;;;12.70;;
34836;SDS011;21053;50.848;4.652;2022-09-24T11:19:11;25.92;;;12.15;;
34836;SDS011;21053;50.848;4.652;2022-09-24T11:41:46;26.45;;;12.05;;
34836;SDS011;21053;50.848;4.652;2022-09-24T11:49:32;26.02;;;11.07;;
34836;SDS011;21053;50.848;4.652;2022-09-24T11:54:59;23.35;;;10.75;;
34836;SDS011;21053;50.848;4.652;2022-09-24T11:57:40;23.77;;;11.38;;
34836;SDS011;21053;50.848;4.652;2022-09-24T12:00:20;26.63;;;10.65;;
34836;SDS011;21053;50.848;4.652;2022-09-24T12:02:57;26.70;;;11.30;;
34836;SDS011;21053;50.848;4.652;2022-09-24T12:05:57;28.75;;;12.02;;
34836;SDS011;21053;50.848;4.652;2022-09-24T12:11:13;26.50;;;12.50;;
34836;SDS011;21053;50.848;4.652;2022-09-24T12:13:46;22.55;;;10.95;;
34836;SDS011;21053;50.848;4.652;2022-09-24T12:16:26;24.77;;;11.25;;
34836;SDS011;21053;50.848;4.652;2022-09-24T12:21:46;20.58;;;10.23;;
34836;SDS011;21053;50.848;4.652;2022-09-24T12:24:35;22.77;;;9.95;;
34836;SDS011;21053;50.848;4.652;2022-09-24T12:27:06;19.58;;;9.75;;
34836;SDS011;21053;50.848;4.652;2022-09-24T12:43:28;25.60;;;11.00;;
34836;SDS011;21053;50.848;4.652;2022-09-24T12:48:29;23.40;;;10.00;;
34836;SDS011;21053;50.848;4.652;2022-09-24T12:51:00;20.77;;;9.98;;
34836;SDS011;21053;50.848;4.652;2022-09-24T12:56:02;20.27;;;10.15;;
34836;SDS011;21053;50.848;4.652;2022-09-24T12:58:43;22.52;;;10.13;;
34836;SDS011;21053;50.848;4.652;2022-09-24T13:04:03;19.33;;;9.60;;
34836;SDS011;21053;50.848;4.652;2022-09-24T13:06:35;19.55;;;9.90;;
34836;SDS011;21053;50.848;4.652;2022-09-24T13:09:02;21.42;;;10.15;;
34836;SDS011;21053;50.848;4.652;2022-09-24T13:11:46;18.83;;;9.57;;
34836;SDS011;21053;50.848;4.652;2022-09-24T13:14:19;20.77;;;9.80;;
34836;SDS011;21053;50.848;4.652;2022-09-24T13:16:52;20.60;;;9.85;;
34836;SDS011;21053;50.848;4.652;2022-09-24T13:19:36;19.08;;;9.70;;
34836;SDS011;21053;50.848;4.652;2022-09-24T13:22:05;20.05;;;8.52;;
34836;SDS011;21053;50.848;4.652;2022-09-24T13:24:47;18.30;;;9.52;;
34836;SDS011;21053;50.848;4.652;2022-09-24T13:27:38;18.80;;;9.45;;
34836;SDS011;21053;50.848;4.652;2022-09-24T13:30:30;18.77;;;9.27;;
34836;SDS011;21053;50.848;4.652;2022-09-24T13:33:00;16.30;;;9.02;;
34836;SDS011;21053;50.848;4.652;2022-09-24T13:38:28;16.70;;;8.70;;
34836;SDS011;21053;50.848;4.652;2022-09-24T13:44:03;17.15;;;8.52;;
34836;SDS011;21053;50.848;4.652;2022-09-24T13:46:39;18.05;;;9.25;;
34836;SDS011;21053;50.848;4.652;2022-09-24T13:49:10;16.05;;;8.43;;
34836;SDS011;21053;50.848;4.652;2022-09-24T13:51:44;15.52;;;7.90;;
34836;SDS011;21053;50.848;4.652;2022-09-24T13:54:35;15.65;;;8.88;;
34836;SDS011;21053;50.848;4.652;2022-09-24T13:57:13;17.13;;;9.77;;
34836;SDS011;21053;50.848;4.652;2022-09-24T14:02:42;15.60;;;9.25;;
34836;SDS011;21053;50.848;4.652;2022-09-24T14:05:15;19.67;;;10.17;;
34836;SDS011;21053;50.848;4.652;2022-09-24T14:10:29;19.13;;;8.67;;
34836;SDS011;21053;50.848;4.652;2022-09-24T14:16:05;17.30;;;9.80;;
34836;SDS011;21053;50.848;4.652;2022-09-24T14:18:34;16.98;;;9.60;;
34836;SDS011;21053;50.848;4.652;2022-09-24T14:21:06;19.77;;;10.55;;
34836;SDS011;21053;50.848;4.652;2022-09-24T14:26:40;16.85;;;9.27;;
34836;SDS011;21053;50.848;4.652;2022-09-24T14:31:58;15.35;;;9.05;;
34836;SDS011;21053;50.848;4.652;2022-09-24T14:37:06;18.67;;;9.68;;
34836;SDS011;21053;50.848;4.652;2022-09-24T14:39:40;18.02;;;8.75;;
34836;SDS011;21053;50.848;4.652;2022-09-24T14:42:28;15.20;;;8.75;;
34836;SDS011;21053;50.848;4.652;2022-09-24T14:45:18;20.63;;;9.80;;
34836;SDS011;21053;50.848;4.652;2022-09-24T14:47:46;20.35;;;9.85;;
34836;SDS011;21053;50.848;4.652;2022-09-24T14:50:25;25.23;;;10.93;;
34836;SDS011;21053;50.848;4.652;2022-09-24T14:52:57;22.52;;;10.50;;
34836;SDS011;21053;50.848;4.652;2022-09-24T14:55:35;20.48;;;10.40;;
34836;SDS011;21053;50.848;4.652;2022-09-24T14:58:02;17.83;;;9.85;;
34836;SDS011;21053;50.848;4.652;2022-09-24T15:00:29;22.67;;;10.18;;
34836;SDS011;21053;50.848;4.652;2022-09-24T15:03:11;20.73;;;10.80;;
34836;SDS011;21053;50.848;4.652;2022-09-24T15:05:40;20.45;;;10.75;;
34836;SDS011;21053;50.848;4.652;2022-09-24T15:10:37;20.10;;;10.30;;
34836;SDS011;21053;50.848;4.652;2022-09-24T15:13:13;17.10;;;10.35;;
34836;SDS011;21053;50.848;4.652;2022-09-24T15:18:14;19.38;;;9.98;;
34836;SDS011;21053;50.848;4.652;2022-09-24T15:20:43;18.58;;;10.05;;
34836;SDS011;21053;50.848;4.652;2022-09-24T15:23:09;28.75;;;10.93;;
34836;SDS011;21053;50.848;4.652;2022-09-24T15:25:34;18.33;;;9.20;;
34836;SDS011;21053;50.848;4.652;2022-09-24T15:28:03;17.52;;;10.50;;
34836;SDS011;21053;50.848;4.652;2022-09-24T15:30:29;17.50;;;10.18;;
34836;SDS011;21053;50.848;4.652;2022-09-24T15:32:55;18.60;;;9.63;;
34836;SDS011;21053;50.848;4.652;2022-09-24T15:35:22;19.95;;;10.20;;
34836;SDS011;21053;50.848;4.652;2022-09-24T15:37:50;20.38;;;9.75;;
34836;SDS011;21053;50.848;4.652;2022-09-24T15:40:18;17.40;;;10.00;;
34836;SDS011;21053;50.848;4.652;2022-09-24T15:42:50;19.30;;;9.68;;
34836;SDS011;21053;50.848;4.652;2022-09-24T15:45:21;21.30;;;10.05;;
34836;SDS011;21053;50.848;4.652;2022-09-24T15:47:49;16.58;;;10.20;;
34836;SDS011;21053;50.848;4.652;2022-09-24T15:50:19;17.65;;;8.95;;
34836;SDS011;21053;50.848;4.652;2022-09-24T15:55:12;16.88;;;8.25;;
34836;SDS011;21053;50.848;4.652;2022-09-24T15:57:42;14.85;;;8.73;;
34836;SDS011;21053;50.848;4.652;2022-09-24T16:00:19;15.57;;;8.90;;
34836;SDS011;21053;50.848;4.652;2022-09-24T16:02:49;16.48;;;8.65;;
34836;SDS011;21053;50.848;4.652;2022-09-24T16:05:18;21.00;;;7.90;;
34836;SDS011;21053;50.848;4.652;2022-09-24T16:07:44;14.07;;;8.57;;
34836;SDS011;21053;50.848;4.652;2022-09-24T16:10:16;14.02;;;7.88;;
34836;SDS011;21053;50.848;4.652;2022-09-24T16:12:41;13.48;;;7.90;;
34836;SDS011;21053;50.848;4.652;2022-09-24T16:15:11;12.50;;;7.82;;
34836;SDS011;21053;50.848;4.652;2022-09-24T16:17:39;11.80;;;7.75;;
34836;SDS011;21053;50.848;4.652;2022-09-24T16:20:05;16.05;;;8.40;;
34836;SDS011;21053;50.848;4.652;2022-09-24T16:22:33;21.92;;;8.75;;
34836;SDS011;21053;50.848;4.652;2022-09-24T16:25:00;17.55;;;7.93;;
34836;SDS011;21053;50.848;4.652;2022-09-24T16:27:25;14.70;;;8.15;;
34836;SDS011;21053;50.848;4.652;2022-09-24T16:29:51;18.80;;;8.98;;
34836;SDS011;21053;50.848;4.652;2022-09-24T16:32:17;14.05;;;8.07;;
34836;SDS011;21053;50.848;4.652;2022-09-24T16:34:44;14.93;;;7.53;;
34836;SDS011;21053;50.848;4.652;2022-09-24T16:37:09;12.43;;;8.00;;
34836;SDS011;21053;50.848;4.652;2022-09-24T16:39:40;17.23;;;8.40;;
34836;SDS011;21053;50.848;4.652;2022-09-24T16:42:07;14.30;;;8.05;;
34836;SDS011;21053;50.848;4.652;2022-09-24T16:44:33;12.38;;;7.93;;
34836;SDS011;21053;50.848;4.652;2022-09-24T16:47:01;14.10;;;8.55;;
34836;SDS011;21053;50.848;4.652;2022-09-24T16:51:59;15.05;;;8.82;;
34836;SDS011;21053;50.848;4.652;2022-09-24T16:54:28;13.05;;;8.10;;
34836;SDS011;21053;50.848;4.652;2022-09-24T16:56:57;12.75;;;8.35;;
34836;SDS011;21053;50.848;4.652;2022-09-24T16:59:23;16.38;;;8.27;;
34836;SDS011;21053;50.848;4.652;2022-09-24T17:01:48;20.27;;;8.77;;
34836;SDS011;21053;50.848;4.652;2022-09-24T17:04:15;15.13;;;8.77;;
34836;SDS011;21053;50.848;4.652;2022-09-24T17:06:41;23.65;;;8.48;;
34836;SDS011;21053;50.848;4.652;2022-09-24T17:09:09;14.30;;;7.93;;
34836;SDS011;21053;50.848;4.652;2022-09-24T17:11:53;15.80;;;8.35;;
34836;SDS011;21053;50.848;4.652;2022-09-24T17:14:20;17.95;;;8.13;;
34836;SDS011;21053;50.848;4.652;2022-09-24T17:16:49;15.68;;;8.95;;
34836;SDS011;21053;50.848;4.652;2022-09-24T17:19:15;16.13;;;8.75;;
34836;SDS011;21053;50.848;4.652;2022-09-24T17:21:41;17.48;;;9.00;;
34836;SDS011;21053;50.848;4.652;2022-09-24T17:24:11;15.38;;;9.00;;
34836;SDS011;21053;50.848;4.652;2022-09-24T17:26:37;15.48;;;8.90;;
34836;SDS011;21053;50.848;4.652;2022-09-24T17:29:03;14.15;;;9.20;;
34836;SDS011;21053;50.848;4.652;2022-09-24T17:31:30;17.05;;;8.90;;
34836;SDS011;21053;50.848;4.652;2022-09-24T17:33:58;16.15;;;9.75;;
34836;SDS011;21053;50.848;4.652;2022-09-24T17:36:26;26.20;;;10.98;;
34836;SDS011;21053;50.848;4.652;2022-09-24T17:38:54;20.02;;;11.02;;
34836;SDS011;21053;50.848;4.652;2022-09-24T17:41:21;17.65;;;10.32;;
34836;SDS011;21053;50.848;4.652;2022-09-24T17:43:48;26.95;;;11.15;;
34836;SDS011;21053;50.848;4.652;2022-09-24T17:46:20;20.33;;;11.15;;
34836;SDS011;21053;50.848;4.652;2022-09-24T17:48:49;16.40;;;10.00;;
34836;SDS011;21053;50.848;4.652;2022-09-24T17:51:17;19.05;;;10.80;;
34836;SDS011;21053;50.848;4.652;2022-09-24T17:53:45;17.75;;;10.70;;
34836;SDS011;21053;50.848;4.652;2022-09-24T17:56:11;21.27;;;11.30;;
34836;SDS011;21053;50.848;4.652;2022-09-24T17:58:43;19.15;;;11.10;;
34836;SDS011;21053;50.848;4.652;2022-09-24T18:01:13;23.75;;;11.23;;
34836;SDS011;21053;50.848;4.652;2022-09-24T18:03:42;20.77;;;10.90;;
34836;SDS011;21053;50.848;4.652;2022-09-24T18:06:09;23.92;;;11.07;;
34836;SDS011;21053;50.848;4.652;2022-09-24T18:08:37;20.75;;;11.35;;
34836;SDS011;21053;50.848;4.652;2022-09-24T18:11:12;21.88;;;11.40;;
34836;SDS011;21053;50.848;4.652;2022-09-24T18:13:44;22.23;;;12.38;;
34836;SDS011;21053;50.848;4.652;2022-09-24T18:16:14;43.25;;;22.55;;
34836;SDS011;21053;50.848;4.652;2022-09-24T18:18:43;31.83;;;14.88;;
34836;SDS011;21053;50.848;4.652;2022-09-24T18:21:11;23.00;;;12.70;;
34836;SDS011;21053;50.848;4.652;2022-09-24T18:23:39;23.60;;;13.98;;
34836;SDS011;21053;50.848;4.652;2022-09-24T18:26:21;24.88;;;12.48;;
34836;SDS011;21053;50.848;4.652;2022-09-24T18:28:52;22.33;;;12.73;;
34836;SDS011;21053;50.848;4.652;2022-09-24T18:31:22;26.65;;;12.48;;
34836;SDS011;21053;50.848;4.652;2022-09-24T18:33:51;20.90;;;12.45;;
34836;SDS011;21053;50.848;4.652;2022-09-24T18:36:20;24.50;;;11.82;;
34836;SDS011;21053;50.848;4.652;2022-09-24T18:38:47;23.30;;;11.73;;
34836;SDS011;21053;50.848;4.652;2022-09-24T18:41:20;20.48;;;11.02;;
34836;SDS011;21053;50.848;4.652;2022-09-24T18:43:49;22.25;;;12.98;;
34836;SDS011;21053;50.848;4.652;2022-09-24T18:46:16;22.38;;;12.13;;
34836;SDS011;21053;50.848;4.652;2022-09-24T18:48:46;21.73;;;12.75;;
34836;SDS011;21053;50.848;4.652;2022-09-24T18:51:15;26.63;;;12.82;;
34836;SDS011;21053;50.848;4.652;2022-09-24T18:54:02;31.98;;;14.15;;
34836;SDS011;21053;50.848;4.652;2022-09-24T18:56:33;24.88;;;12.93;;
34836;SDS011;21053;50.848;4.652;2022-09-24T18:59:03;25.83;;;12.93;;
34836;SDS011;21053;50.848;4.652;2022-09-24T19:01:35;28.25;;;13.55;;
34836;SDS011;21053;50.848;4.652;2022-09-24T19:04:01;22.55;;;13.00;;
34836;SDS011;21053;50.848;4.652;2022-09-24T19:06:27;24.48;;;14.25;;
34836;SDS011;21053;50.848;4.652;2022-09-24T19:08:55;26.60;;;14.85;;
34836;SDS011;21053;50.848;4.652;2022-09-24T19:11:21;28.77;;;15.20;;
34836;SDS011;21053;50.848;4.652;2022-09-24T19:13:49;20.77;;;13.20;;
34836;SDS011;21053;50.848;4.652;2022-09-24T19:16:18;24.55;;;14.02;;
34836;SDS011;21053;50.848;4.652;2022-09-24T19:18:46;31.85;;;16.88;;
34836;SDS011;21053;50.848;4.652;2022-09-24T19:21:12;28.80;;;16.35;;